createdAt,value
2022-11-16T00:03:56.124Z,2.7
2022-11-16T00:09:39.325Z,2.6
2022-11-16T00:15:22.213Z,2.8
2022-11-16T00:21:06.902Z,2.6
2022-11-16T00:26:50.030Z,2.5
2022-11-16T00:32:32.806Z,2.5
2022-11-16T00:38:17.060Z,2.7
2022-11-16T00:43:59.817Z,2.5
2022-11-16T00:49:42.868Z,2.6
2022-11-16T00:55:25.938Z,2.5
2022-11-16T01:01:10.555Z,2.2
2022-11-16T01:06:53.829Z,2.5
2022-11-16T01:12:37.299Z,2.3
2022-11-16T01:18:20.056Z,2.4
2022-11-16T01:24:03.014Z,2.3
2022-11-16T01:29:45.905Z,2.2
2022-11-16T01:35:28.792Z,2.3
2022-11-16T01:41:14.388Z,2.3
2022-11-16T01:46:57.301Z,2.2
2022-11-16T01:52:42.150Z,2.3
2022-11-16T01:58:26.532Z,2.3
2022-11-16T02:04:11.544Z,2.5
2022-11-16T02:10:08.530Z,2.3
2022-11-16T02:15:56.932Z,2.2
2022-11-16T02:21:42.959Z,2.1
2022-11-16T02:27:39.978Z,2.2
2022-11-16T02:33:25.028Z,2.1
2022-11-16T02:39:10.664Z,1.9
2022-11-16T02:44:54.431Z,2.1
2022-11-16T02:50:39.501Z,2.4
2022-11-16T02:56:22.660Z,2.2
2022-11-16T03:02:10.888Z,2
2022-11-16T03:07:59.794Z,2.2
2022-11-16T03:13:45.087Z,2.1
2022-11-16T03:19:31.067Z,1.8
2022-11-16T03:25:15.468Z,1.8
2022-11-16T03:31:00.428Z,2.2
2022-11-16T03:36:44.834Z,2
2022-11-16T03:42:28.080Z,1.8
2022-11-16T03:48:11.713Z,1.9
2022-11-16T03:53:54.881Z,1.8
2022-11-16T03:59:37.946Z,2.2
2022-11-16T04:05:21.747Z,1.8
2022-11-16T04:11:04.946Z,1.6
2022-11-16T04:16:48.939Z,2.1
2022-11-16T04:22:33.741Z,1.8
2022-11-16T04:28:17.906Z,1.7
2022-11-16T04:34:00.661Z,1.7
2022-11-16T04:39:43.600Z,1.7
2022-11-16T04:45:27.383Z,1.7
2022-11-16T04:51:10.319Z,1.5
2022-11-16T04:56:53.355Z,1.7
2022-11-16T05:02:36.431Z,1.7
2022-11-16T05:08:19.499Z,1.5
2022-11-16T05:14:02.597Z,2
2022-11-16T05:19:45.975Z,1.6
2022-11-16T05:25:38.033Z,1.6
2022-11-16T05:31:21.106Z,1.5
2022-11-16T05:37:04.171Z,1.6
2022-11-16T05:42:47.029Z,1.8
2022-11-16T05:48:29.924Z,1.6
2022-11-16T05:54:13.340Z,1.9
2022-11-16T05:59:56.187Z,1.3
2022-11-16T06:05:42.565Z,1.9
2022-11-16T06:11:25.776Z,1.3
2022-11-16T06:17:13.199Z,1.4
2022-11-16T06:22:56.056Z,1.4
2022-11-16T06:28:39.364Z,1.7
2022-11-16T06:34:22.528Z,1.6
2022-11-16T06:40:06.430Z,2.3
2022-11-16T06:45:49.536Z,1.7
2022-11-16T06:51:33.498Z,1.9
2022-11-16T06:57:16.627Z,1.5
2022-11-16T07:02:59.599Z,2.1
2022-11-16T07:08:42.477Z,1.7
2022-11-16T07:14:25.209Z,1.8
2022-11-16T07:20:08.553Z,1.8
2022-11-16T07:25:51.204Z,2
2022-11-16T07:31:34.162Z,1.8
2022-11-16T07:37:16.788Z,1.4
2022-11-16T07:43:02.507Z,1.7
2022-11-16T07:48:45.557Z,1.7
2022-11-16T07:54:29.654Z,1.7
2022-11-16T08:00:13.487Z,1.8
2022-11-16T08:05:59.408Z,1.5
2022-11-16T08:11:42.464Z,1.8
2022-11-16T08:17:26.325Z,1.5
2022-11-16T08:23:09.374Z,1.6
2022-11-16T08:28:52.676Z,1.8
2022-11-16T08:34:35.701Z,1.5
2022-11-16T08:40:19.174Z,2
2022-11-16T08:46:02.992Z,2.3
2022-11-16T08:51:46.025Z,1.9
2022-11-16T08:57:28.865Z,2.1
2022-11-16T09:03:12.517Z,1.7
2022-11-16T09:08:55.489Z,1.6
2022-11-16T09:14:38.305Z,1.7
2022-11-16T09:20:21.402Z,1.8
2022-11-16T09:26:06.848Z,1.3
2022-11-16T09:31:49.988Z,1.4
2022-11-16T09:37:32.817Z,1.6
2022-11-16T09:43:21.127Z,1.8
2022-11-16T09:49:18.019Z,1.7
2022-11-16T09:55:03.959Z,1.8
2022-11-16T10:00:51.168Z,1.8
2022-11-16T10:06:39.832Z,1.4
2022-11-16T10:12:26.161Z,1.6
2022-11-16T10:18:16.832Z,1.5
2022-11-16T10:24:07.575Z,1.3
2022-11-16T10:29:58.982Z,1.6
2022-11-16T10:35:44.330Z,1.5
2022-11-16T10:41:30.656Z,1.4
2022-11-16T10:47:18.616Z,1.6
2022-11-16T10:53:01.976Z,1.5
2022-11-16T10:58:55.196Z,1.4
2022-11-16T11:04:38.102Z,1.1
2022-11-16T11:10:29.588Z,1.2
2022-11-16T11:16:20.667Z,1.2
2022-11-16T11:22:04.972Z,1.2
2022-11-16T11:27:47.985Z,1.3
2022-11-16T11:33:32.799Z,1.1
2022-11-16T11:39:30.732Z,1.3
2022-11-16T11:45:14.582Z,1.3
2022-11-16T11:51:02.467Z,1
2022-11-16T11:56:45.505Z,1.2
2022-11-16T12:02:36.665Z,1.3
2022-11-16T12:08:26.638Z,1.3
2022-11-16T12:14:15.380Z,1.6
2022-11-16T12:20:13.615Z,1.5
2022-11-16T12:26:01.261Z,1.3
2022-11-16T12:31:52.214Z,1.5
2022-11-16T12:37:39.185Z,1.4
2022-11-16T12:43:24.474Z,1.5
2022-11-16T12:49:19.942Z,1.7
2022-11-16T12:55:26.227Z,1.5
2022-11-16T13:01:18.913Z,1.5
2022-11-16T13:07:12.242Z,1.6
2022-11-16T13:13:30.040Z,1.5
2022-11-16T13:19:02.422Z,1.8
2022-11-16T13:24:53.460Z,1.8
2022-11-16T13:30:42.813Z,1.9
2022-11-16T13:36:37.351Z,1.9
2022-11-16T13:42:20.162Z,1.6
2022-11-16T13:48:04.847Z,1.7
2022-11-16T13:59:57.797Z,1.6
2022-11-16T14:05:44.912Z,1.5
2022-11-16T14:11:33.740Z,1.5
2022-11-16T14:17:21.693Z,1.8
2022-11-16T14:23:13.774Z,1.8
2022-11-16T14:29:04.609Z,1.5
2022-11-16T14:34:49.024Z,1.8
2022-11-16T14:40:34.080Z,2
2022-11-16T14:46:22.518Z,1.8
2022-11-16T14:52:06.553Z,2.4
2022-11-16T14:57:57.968Z,1.9
2022-11-16T15:03:42.901Z,1.8
2022-11-16T15:09:28.610Z,1.7
2022-11-16T15:15:15.220Z,1.8
2022-11-16T15:20:58.180Z,1.7
2022-11-16T15:26:41.421Z,1.6
2022-11-16T15:32:24.408Z,1.7
2022-11-16T15:38:13.468Z,1.8
2022-11-16T15:44:14.396Z,1.8
2022-11-16T15:49:58.646Z,1.6
2022-11-16T15:55:42.516Z,1.8
2022-11-16T16:01:26.451Z,1.9
2022-11-16T16:07:09.856Z,1.8
2022-11-16T16:12:53.114Z,1.8
2022-11-16T16:18:36.018Z,1.9
2022-11-16T16:24:29.810Z,1.8
2022-11-16T16:30:14.880Z,1.9
2022-11-16T16:35:57.888Z,1.9
2022-11-16T16:41:41.644Z,1.8
2022-11-16T16:47:24.537Z,2.1
2022-11-16T16:53:07.484Z,1.8
2022-11-16T16:58:50.845Z,2
2022-11-16T17:04:34.286Z,2
2022-11-16T17:10:17.423Z,2.2
2022-11-16T17:16:00.545Z,2
2022-11-16T17:21:43.687Z,2
2022-11-16T17:27:26.709Z,1.9
2022-11-16T17:33:09.721Z,2
2022-11-16T17:38:52.580Z,1.9
2022-11-16T17:44:35.259Z,2
2022-11-16T17:50:18.444Z,2.1
2022-11-16T17:56:01.318Z,2.2
2022-11-16T18:01:44.352Z,2
2022-11-16T18:07:27.749Z,2.2
2022-11-16T18:13:11.043Z,1.8
2022-11-16T18:18:58.026Z,2.1
2022-11-16T18:24:41.923Z,2
2022-11-16T18:30:25.477Z,2.1
2022-11-16T18:36:09.954Z,2.3
2022-11-16T18:41:56.757Z,2.7
2022-11-16T18:47:40.612Z,2.5
2022-11-16T18:53:23.648Z,2.4
2022-11-16T18:59:06.889Z,2.7
2022-11-16T19:04:50.031Z,2.6
2022-11-16T19:10:37.030Z,2.1
2022-11-16T19:16:19.944Z,1.9
2022-11-16T19:22:02.837Z,2
2022-11-16T19:27:45.982Z,2.3
2022-11-16T19:33:28.965Z,2.1
2022-11-16T19:39:12.103Z,2
2022-11-16T19:44:55.101Z,1.9
2022-11-16T19:50:37.977Z,2
2022-11-16T19:56:22.103Z,2
2022-11-16T20:02:07.436Z,2.3
2022-11-16T20:07:50.715Z,1.9
2022-11-16T20:13:34.361Z,2.1
2022-11-16T20:19:17.793Z,1.8
2022-11-16T20:25:00.662Z,2
2022-11-16T20:30:46.342Z,2.2
2022-11-16T20:36:30.057Z,2
2022-11-16T20:42:15.557Z,1.7
2022-11-16T20:48:01.142Z,1.8
2022-11-16T20:53:46.681Z,1.6
2022-11-16T20:59:32.303Z,1.6
2022-11-16T21:05:16.723Z,1.5
2022-11-16T21:11:00.716Z,1.5
2022-11-16T21:16:45.924Z,1.5
2022-11-16T21:22:35.551Z,1.3
2022-11-16T21:28:27.093Z,1.3
2022-11-16T21:34:11.493Z,1.2
2022-11-16T21:39:55.830Z,1.2
2022-11-16T21:45:40.063Z,1.4
2022-11-16T21:51:25.896Z,1.1
2022-11-16T21:57:12.186Z,1.1
2022-11-16T22:02:56.461Z,1.1
2022-11-16T22:08:39.915Z,0.9
2022-11-16T22:14:23.102Z,1.1
2022-11-16T22:20:08.089Z,1
2022-11-16T22:25:51.333Z,0.9
2022-11-16T22:31:34.884Z,1
2022-11-16T22:37:18.155Z,1
2022-11-16T22:43:01.832Z,1.3
2022-11-16T22:48:44.803Z,0.9
2022-11-16T22:54:30.579Z,0.9
2022-11-16T23:00:14.572Z,1
2022-11-16T23:05:57.485Z,1
2022-11-16T23:11:40.548Z,0.9
2022-11-16T23:17:26.392Z,1.1
2022-11-16T23:23:14.211Z,1.1
2022-11-16T23:28:58.433Z,1.1
2022-11-16T23:34:41.544Z,1
2022-11-16T23:40:25.581Z,0.9
2022-11-16T23:46:08.625Z,0.9
2022-11-16T23:51:51.545Z,0.8
2022-11-16T23:57:34.541Z,0.7
